Time;durP1;ratioP1;P1;durP2;ratioP2;P2;SDS_P1;SDS_P2;PMS_P1;PMS_P2;Temp;Humidity;BMP_temperature;BMP_pressure;BME280_temperature;BME280_humidity;BME280_pressure;Samples;Min_cycle;Max_cycle;Signal;HPM_P1;HPM_P2
2023/09/20 00:00:40;;;;;;;4.40;2.50;;;18.90;98.00;;;;;;5010687;28;20493;-83
2023/09/20 00:03:08;;;;;;;5.93;2.30;;;18.90;98.00;;;;;;5037815;28;20468;-81
2023/09/20 00:05:39;;;;;;;9.20;2.60;;;18.90;98.00;;;;;;5033090;28;21037;-81
2023/09/20 00:08:06;;;;;;;2.93;2.20;;;19.00;98.10;;;;;;5033095;28;20476;-81
2023/09/20 00:10:33;;;;;;;3.50;2.10;;;19.00;98.10;;;;;;5033328;28;20515;-84
2023/09/20 00:13:02;;;;;;;3.87;2.33;;;19.00;98.10;;;;;;5033947;28;20477;-83
2023/09/20 00:15:30;;;;;;;3.97;2.60;;;18.90;98.00;;;;;;5052513;28;20478;-81
2023/09/20 00:18:05;;;;;;;8.20;2.70;;;18.90;98.00;;;;;;5042360;28;20550;-83
2023/09/20 00:20:33;;;;;;;5.13;2.83;;;18.90;98.10;;;;;;5042538;28;20479;-81
2023/09/20 00:23:02;;;;;;;3.33;2.90;;;18.90;98.10;;;;;;5032095;28;20475;-83
2023/09/20 00:25:32;;;;;;;3.63;2.33;;;18.90;98.10;;;;;;5051756;28;20488;-83
2023/09/20 00:27:59;;;;;;;3.53;2.20;;;18.90;98.10;;;;;;5040543;28;20554;-81
2023/09/20 00:30:28;;;;;;;3.60;2.27;;;18.90;98.00;;;;;;5029797;28;20464;-83
2023/09/20 00:33:01;;;;;;;5.40;2.30;;;18.90;98.10;;;;;;5048320;28;20920;-80
2023/09/20 00:35:28;;;;;;;4.50;2.73;;;18.80;98.20;;;;;;5172726;22;20571;-80
2023/09/20 00:37:57;;;;;;;3.00;2.37;;;18.80;98.20;;;;;;5022422;28;20475;-83
2023/09/20 00:40:27;;;;;;;4.73;2.70;;;18.90;98.20;;;;;;5033195;28;20939;-83
2023/09/20 00:42:58;;;;;;;5.57;1.90;;;18.90;98.30;;;;;;5031083;28;20973;-83
2023/09/20 00:45:33;;;;;;;3.83;2.47;;;18.90;98.40;;;;;;5032227;28;20534;-81
2023/09/20 00:48:01;;;;;;;5.03;1.90;;;18.80;98.20;;;;;;5031942;28;20618;-80
2023/09/20 00:50:33;;;;;;;4.73;2.23;;;18.80;98.30;;;;;;5033166;28;20475;-80
2023/09/20 00:53:06;;;;;;;4.40;1.77;;;18.70;98.40;;;;;;5031605;28;20560;-85
2023/09/20 00:55:36;;;;;;;5.23;2.40;;;18.70;98.50;;;;;;5032706;28;20547;-80
2023/09/20 00:58:07;;;;;;;3.67;2.57;;;18.70;98.60;;;;;;5023344;28;20468;-80
2023/09/20 01:00:40;;;;;;;4.60;2.20;;;18.60;98.60;;;;;;5031756;28;20483;-84
2023/09/20 01:03:07;;;;;;;2.70;2.30;;;18.60;98.70;;;;;;5031103;28;20587;-80
2023/09/20 01:05:36;;;;;;;3.40;2.00;;;18.60;98.70;;;;;;5033715;28;20530;-83
2023/09/20 01:08:06;;;;;;;2.60;2.40;;;18.60;98.80;;;;;;5036395;28;20557;-80
2023/09/20 01:10:36;;;;;;;3.20;2.47;;;18.60;98.90;;;;;;5036237;28;20511;-83
2023/09/20 01:13:07;;;;;;;4.33;2.50;;;18.60;98.90;;;;;;5035634;28;20468;-84
2023/09/20 01:15:40;;;;;;;4.10;2.67;;;18.60;98.90;;;;;;5035913;28;20472;-83
2023/09/20 01:18:07;;;;;;;3.77;2.30;;;18.60;98.80;;;;;;5035998;28;20790;-84
2023/09/20 01:20:37;;;;;;;4.80;2.50;;;18.60;98.90;;;;;;5036465;28;20471;-81
2023/09/20 01:23:05;;;;;;;4.10;2.27;;;18.60;98.90;;;;;;5039194;28;20478;-84
2023/09/20 01:25:35;;;;;;;4.67;3.17;;;18.60;99.10;;;;;;5036003;28;20479;-81
2023/09/20 01:28:04;;;;;;;4.07;2.00;;;18.50;99.10;;;;;;5035912;28;20562;-84
2023/09/20 01:30:49;;;;;;;3.47;1.93;;;18.50;99.10;;;;;;5036333;28;20971;-84
2023/09/20 01:33:18;;;;;;;3.37;1.90;;;18.40;99.20;;;;;;5028253;28;20939;-84
2023/09/20 01:35:47;;;;;;;3.00;2.33;;;18.40;99.40;;;;;;5046545;28;20463;-84
2023/09/20 01:38:15;;;;;;;3.00;2.20;;;18.40;99.50;;;;;;5055960;28;20475;-84
2023/09/20 01:40:42;;;;;;;5.47;2.60;;;18.40;99.60;;;;;;5045080;28;22085;-81
2023/09/20 01:43:11;;;;;;;2.70;2.13;;;18.40;99.60;;;;;;5055655;28;20467;-84
2023/09/20 01:45:38;;;;;;;3.00;1.90;;;18.40;99.60;;;;;;5056354;28;20482;-84
2023/09/20 01:48:08;;;;;;;4.10;2.67;;;18.40;99.70;;;;;;5053946;28;20495;-84
2023/09/20 01:50:36;;;;;;;3.40;2.37;;;18.30;99.70;;;;;;5055599;28;20463;-84
2023/09/20 01:53:09;;;;;;;3.50;2.10;;;18.30;99.70;;;;;;5055915;28;20499;-81
2023/09/20 01:55:42;;;;;;;5.03;2.80;;;18.30;99.80;;;;;;5057674;28;21011;-84
2023/09/20 01:58:12;;;;;;;4.27;3.10;;;18.30;99.90;;;;;;5056555;28;20528;-84
2023/09/20 02:00:50;;;;;;;3.50;2.77;;;18.40;99.90;;;;;;5055062;28;20475;-84
2023/09/20 02:03:17;;;;;;;8.50;3.10;;;18.30;99.90;;;;;;5055719;28;20542;-81
2023/09/20 02:05:46;;;;;;;4.77;1.97;;;18.30;99.90;;;;;;5055191;28;20868;-81
2023/09/20 02:08:16;;;;;;;3.13;2.23;;;18.30;99.90;;;;;;5055550;28;20471;-84
2023/09/20 02:10:45;;;;;;;5.67;2.63;;;18.20;99.90;;;;;;5054821;28;20474;-83
2023/09/20 02:13:15;;;;;;;3.30;2.27;;;18.20;99.90;;;;;;5055439;28;20547;-84
2023/09/20 02:15:42;;;;;;;6.00;2.20;;;18.30;99.90;;;;;;5055013;28;20479;-84
2023/09/20 02:18:10;;;;;;;3.40;2.80;;;18.30;99.90;;;;;;5054845;28;20475;-84
2023/09/20 02:20:37;;;;;;;3.63;2.00;;;18.30;99.90;;;;;;5054743;28;20467;-84
2023/09/20 02:23:06;;;;;;;3.20;2.50;;;18.30;99.90;;;;;;5054869;28;20981;-81
2023/09/20 02:25:33;;;;;;;2.40;2.13;;;18.30;99.90;;;;;;5054102;28;20471;-81
2023/09/20 02:28:02;;;;;;;4.00;2.33;;;18.30;99.90;;;;;;5054774;28;20475;-84
2023/09/20 02:30:32;;;;;;;4.60;3.00;;;18.30;99.90;;;;;;5054853;28;20471;-81
2023/09/20 02:33:00;;;;;;;2.93;2.23;;;18.30;99.90;;;;;;5054474;28;20527;-84
2023/09/20 02:35:29;;;;;;;2.70;2.00;;;18.30;99.90;;;;;;5054687;28;20493;-84
2023/09/20 02:37:58;;;;;;;6.13;2.43;;;18.30;99.90;;;;;;5053689;28;20471;-81
2023/09/20 02:40:27;;;;;;;3.47;2.50;;;18.30;99.90;;;;;;5054958;28;21000;-84
2023/09/20 02:42:58;;;;;;;3.07;1.70;;;18.40;99.90;;;;;;5053991;28;20474;-84
2023/09/20 02:45:29;;;;;;;6.03;3.23;;;18.40;99.90;;;;;;5055033;28;20550;-84
2023/09/20 02:47:56;;;;;;;4.40;3.17;;;18.40;99.90;;;;;;5053365;28;20554;-81
2023/09/20 02:50:25;;;;;;;9.77;2.13;;;18.30;99.90;;;;;;5055011;28;20529;-84
2023/09/20 02:52:54;;;;;;;6.33;2.93;;;18.30;99.90;;;;;;5054653;28;20489;-84
2023/09/20 02:55:23;;;;;;;3.70;1.90;;;18.30;99.90;;;;;;5054809;28;20522;-81
2023/09/20 02:57:52;;;;;;;3.93;2.10;;;18.30;99.90;;;;;;5053598;28;20467;-81
2023/09/20 03:00:27;;;;;;;3.53;2.00;;;18.30;99.90;;;;;;5054175;28;20557;-84
2023/09/20 03:02:58;;;;;;;6.33;2.30;;;18.30;99.90;;;;;;5054300;28;20494;-84
2023/09/20 03:05:27;;;;;;;3.43;2.23;;;18.30;99.90;;;;;;5054020;28;20475;-81
2023/09/20 03:07:55;;;;;;;3.87;2.03;;;18.30;99.90;;;;;;5052803;28;20495;-84
2023/09/20 03:10:23;;;;;;;3.10;2.27;;;18.30;99.90;;;;;;5053303;28;20553;-84
2023/09/20 03:12:52;;;;;;;4.20;2.40;;;18.30;99.90;;;;;;5053717;28;20463;-84
2023/09/20 03:15:22;;;;;;;3.43;2.23;;;18.40;99.90;;;;;;5053382;28;20486;-83
2023/09/20 03:17:50;;;;;;;3.17;2.17;;;18.40;99.90;;;;;;5052951;28;20482;-83
2023/09/20 03:20:22;;;;;;;1.90;1.70;;;18.40;99.90;;;;;;5054105;28;20482;-83
2023/09/20 03:22:50;;;;;;;3.23;2.70;;;18.40;99.90;;;;;;5053387;28;20513;-83
2023/09/20 03:25:17;;;;;;;3.90;2.23;;;18.40;99.90;;;;;;5053823;28;20551;-83
2023/09/20 03:27:44;;;;;;;2.97;2.20;;;18.40;99.90;;;;;;5053289;28;20564;-83
2023/09/20 03:30:13;;;;;;;2.90;2.50;;;18.50;99.90;;;;;;5054065;28;20493;-83
2023/09/20 03:32:40;;;;;;;3.13;2.00;;;18.50;99.90;;;;;;5053577;28;20467;-83
2023/09/20 03:35:08;;;;;;;3.23;1.90;;;18.40;99.90;;;;;;5052857;28;20463;-83
2023/09/20 03:37:38;;;;;;;7.23;2.07;;;18.40;99.90;;;;;;5053584;28;20529;-83
2023/09/20 03:40:10;;;;;;;4.07;2.30;;;18.40;99.90;;;;;;5053694;28;20455;-83
2023/09/20 03:42:38;;;;;;;3.30;2.23;;;18.40;99.90;;;;;;5053312;28;20478;-83
2023/09/20 03:45:06;;;;;;;2.87;2.00;;;18.40;99.90;;;;;;5053018;28;20455;-83
2023/09/20 03:47:33;;;;;;;2.53;1.70;;;18.40;99.90;;;;;;5053321;28;20475;-83
2023/09/20 03:50:00;;;;;;;2.50;2.00;;;18.50;99.90;;;;;;5052882;28;20493;-83
2023/09/20 03:52:27;;;;;;;2.40;2.20;;;18.50;99.90;;;;;;5053622;28;20498;-80
2023/09/20 03:54:58;;;;;;;2.47;2.27;;;18.50;99.90;;;;;;5052838;28;20475;-81
2023/09/20 03:57:25;;;;;;;5.17;2.23;;;18.50;99.90;;;;;;5053204;28;20467;-83
2023/09/20 03:59:52;;;;;;;4.03;2.33;;;18.40;99.90;;;;;;5052959;28;20481;-81
2023/09/20 04:02:19;;;;;;;3.30;2.20;;;18.50;99.90;;;;;;5053410;28;21072;-80
2023/09/20 04:04:46;;;;;;;6.10;2.57;;;18.40;99.90;;;;;;5053058;28;20471;-81
2023/09/20 04:07:13;;;;;;;6.90;2.63;;;18.40;99.90;;;;;;5053111;28;20845;-83
2023/09/20 04:09:41;;;;;;;1.90;1.70;;;18.40;99.90;;;;;;5053391;28;20475;-81
2023/09/20 04:12:10;;;;;;;4.67;2.10;;;18.40;99.90;;;;;;5052970;28;20626;-80
2023/09/20 04:14:37;;;;;;;4.87;2.60;;;18.30;99.90;;;;;;5053217;28;20475;-82
2023/09/20 04:17:05;;;;;;;3.90;2.00;;;18.30;99.90;;;;;;5052914;28;20474;-83
2023/09/20 04:19:32;;;;;;;5.30;2.20;;;18.30;99.90;;;;;;5053270;28;20506;-81
2023/09/20 04:22:01;;;;;;;2.50;2.20;;;18.30;99.90;;;;;;5052639;28;20525;-80
2023/09/20 04:24:28;;;;;;;5.00;2.80;;;18.30;99.90;;;;;;5053214;28;20553;-83
2023/09/20 04:26:55;;;;;;;3.00;2.27;;;18.30;99.90;;;;;;5052891;28;20965;-81
2023/09/20 04:29:25;;;;;;;2.77;2.17;;;18.20;99.90;;;;;;5053237;28;20472;-83
2023/09/20 04:31:53;;;;;;;4.67;2.73;;;18.20;99.90;;;;;;5052631;28;20471;-81
2023/09/20 04:34:20;;;;;;;2.60;2.20;;;18.20;99.90;;;;;;5052958;28;20876;-83
2023/09/20 04:36:47;;;;;;;2.70;1.70;;;18.20;99.90;;;;;;5052724;28;20475;-83
2023/09/20 04:39:14;;;;;;;5.80;2.80;;;18.20;99.90;;;;;;5052152;28;21192;-83
2023/09/20 04:41:41;;;;;;;6.30;2.27;;;18.20;99.90;;;;;;5052550;28;20475;-83
2023/09/20 04:44:08;;;;;;;2.07;1.60;;;18.10;99.90;;;;;;5051555;28;20506;-82
2023/09/20 04:46:40;;;;;;;3.90;3.10;;;18.20;99.90;;;;;;5052210;28;20463;-82
2023/09/20 04:49:08;;;;;;;3.60;2.53;;;18.10;99.90;;;;;;5051852;28;20505;-80
2023/09/20 04:51:35;;;;;;;3.23;2.00;;;18.10;99.90;;;;;;5052430;28;20459;-79
2023/09/20 04:54:04;;;;;;;10.30;2.97;;;18.10;99.90;;;;;;5052410;28;20537;-82
2023/09/20 04:56:38;;;;;;;3.87;2.17;;;18.10;99.90;;;;;;5053073;28;20554;-80
2023/09/20 04:59:08;;;;;;;3.17;2.43;;;18.10;99.90;;;;;;5051798;28;20467;-83
2023/09/20 05:01:39;;;;;;;2.27;1.97;;;18.10;99.90;;;;;;5052768;28;20471;-83
2023/09/20 05:04:07;;;;;;;4.67;2.03;;;18.10;99.90;;;;;;5050895;28;20483;-81
2023/09/20 05:06:34;;;;;;;2.57;2.37;;;18.10;99.90;;;;;;5052233;28;20554;-80
2023/09/20 05:09:25;;;;;;;4.60;2.13;;;18.10;99.90;;;;;;5051698;28;20550;-79
2023/09/20 05:11:53;;;;;;;6.90;2.80;;;18.00;99.90;;;;;;5051838;28;20471;-82
2023/09/20 05:14:21;;;;;;;8.70;5.30;;;18.00;99.90;;;;;;5052007;28;20479;-81
2023/09/20 05:16:53;;;;;;;8.00;6.20;;;18.00;99.90;;;;;;5052538;28;20490;-83
2023/09/20 05:19:21;;;;;;;6.73;4.47;;;18.00;99.90;;;;;;5029554;28;20650;-83
2023/09/20 05:21:48;;;;;;;8.60;4.60;;;18.00;99.90;;;;;;5045169;28;20477;-83
2023/09/20 05:24:15;;;;;;;9.87;4.27;;;18.00;99.90;;;;;;5051653;28;20471;-83
2023/09/20 05:26:43;;;;;;;5.70;2.97;;;18.00;99.90;;;;;;5052078;28;20474;-84
2023/09/20 05:29:11;;;;;;;7.20;2.83;;;18.10;99.90;;;;;;5051706;28;20792;-83
2023/09/20 05:31:38;;;;;;;3.50;2.27;;;18.00;99.90;;;;;;5052214;28;20471;-81
2023/09/20 05:34:09;;;;;;;2.80;1.97;;;18.00;99.90;;;;;;5051533;28;20460;-81
2023/09/20 05:36:37;;;;;;;6.00;2.23;;;18.00;99.90;;;;;;5052608;28;20467;-81
2023/09/20 05:39:06;;;;;;;3.20;2.87;;;18.00;99.90;;;;;;5050899;28;20550;-83
2023/09/20 05:41:34;;;;;;;2.47;1.90;;;18.00;99.90;;;;;;5051626;28;20471;-83
2023/09/20 05:44:01;;;;;;;2.80;2.20;;;18.00;99.90;;;;;;5051958;28;20493;-83
2023/09/20 05:46:28;;;;;;;3.03;2.03;;;18.10;99.90;;;;;;5052431;28;20529;-83
2023/09/20 05:48:55;;;;;;;4.50;2.47;;;18.10;99.90;;;;;;5052270;28;20463;-84
2023/09/20 05:51:23;;;;;;;3.63;2.00;;;18.10;99.90;;;;;;5053164;28;20524;-83
2023/09/20 05:53:50;;;;;;;2.00;1.43;;;18.00;99.90;;;;;;5055956;28;20467;-83
2023/09/20 05:56:19;;;;;;;5.63;2.80;;;18.10;99.90;;;;;;5055293;28;20495;-83
2023/09/20 05:58:46;;;;;;;5.20;2.77;;;18.10;99.90;;;;;;5055937;28;20479;-83
2023/09/20 06:01:17;;;;;;;6.03;4.00;;;18.10;99.90;;;;;;5054905;28;20509;-83
2023/09/20 06:03:46;;;;;;;7.53;4.40;;;18.10;99.90;;;;;;5055704;28;20563;-83
2023/09/20 06:06:13;;;;;;;8.40;6.30;;;18.20;99.90;;;;;;5054785;28;20536;-83
2023/09/20 06:08:42;;;;;;;7.60;5.70;;;18.10;99.90;;;;;;5055449;28;20474;-83
2023/09/20 06:11:09;;;;;;;7.53;5.87;;;18.20;99.90;;;;;;5055060;28;20467;-83
2023/09/20 06:13:37;;;;;;;3.73;3.10;;;18.20;99.90;;;;;;5055545;28;20953;-84
2023/09/20 06:16:07;;;;;;;7.17;6.20;;;18.20;99.90;;;;;;5054731;28;20957;-82
2023/09/20 06:18:35;;;;;;;14.27;6.20;;;18.20;99.90;;;;;;5055476;28;20463;-83
2023/09/20 06:21:03;;;;;;;6.60;3.20;;;18.20;99.90;;;;;;5055261;28;20485;-83
2023/09/20 06:23:30;;;;;;;3.90;3.03;;;18.20;99.90;;;;;;5055037;28;20917;-83
2023/09/20 06:26:04;;;;;;;3.67;2.73;;;18.30;99.90;;;;;;5055020;28;20965;-83
2023/09/20 06:28:32;;;;;;;4.20;2.20;;;18.20;99.90;;;;;;5055331;28;20533;-84
2023/09/20 06:31:03;;;;;;;4.83;2.20;;;18.30;99.90;;;;;;5054663;28;20989;-83
2023/09/20 06:33:30;;;;;;;6.33;2.30;;;18.30;99.90;;;;;;5055029;28;20548;-83
2023/09/20 06:35:59;;;;;;;6.90;3.10;;;18.30;99.90;;;;;;5054420;28;20533;-83
2023/09/20 06:38:26;;;;;;;4.83;3.80;;;18.40;99.90;;;;;;5054796;28;20463;-83
2023/09/20 06:40:56;;;;;;;4.10;3.17;;;18.50;99.90;;;;;;5054910;28;20558;-83
2023/09/20 06:43:24;;;;;;;3.63;2.30;;;18.60;99.90;;;;;;5054373;28;20903;-84
2023/09/20 06:45:52;;;;;;;4.23;2.30;;;18.60;99.90;;;;;;5055391;28;20975;-83
2023/09/20 06:48:22;;;;;;;3.40;2.67;;;18.70;99.90;;;;;;5054442;28;20467;-81
2023/09/20 06:50:50;;;;;;;3.77;2.73;;;18.70;99.90;;;;;;5055248;28;20462;-84
2023/09/20 06:53:17;;;;;;;4.20;3.53;;;18.80;99.90;;;;;;5054258;28;20820;-83
2023/09/20 06:55:44;;;;;;;5.03;2.23;;;18.80;99.90;;;;;;5054667;28;20512;-83
2023/09/20 06:58:12;;;;;;;3.73;2.43;;;18.80;99.90;;;;;;5054339;28;20860;-83
2023/09/20 07:00:40;;;;;;;4.93;2.73;;;18.90;99.90;;;;;;5054471;28;20463;-81
2023/09/20 07:03:07;;;;;;;6.57;5.27;;;18.90;99.90;;;;;;5053226;28;20807;-80
2023/09/20 07:05:50;;;;;;;7.73;4.03;;;18.90;99.90;;;;;;5040464;28;20487;-83
2023/09/20 07:08:21;;;;;;;3.90;2.40;;;19.00;99.90;;;;;;5040692;28;20798;-83
2023/09/20 07:10:50;;;;;;;5.20;3.00;;;19.10;99.90;;;;;;5054407;28;20463;-83
2023/09/20 07:13:18;;;;;;;4.80;4.37;;;19.10;99.90;;;;;;5054039;28;20482;-83
2023/09/20 07:16:04;;;;;;;5.17;4.10;;;19.20;99.90;;;;;;5054593;28;21015;-84
2023/09/20 07:18:31;;;;;;;3.50;3.00;;;19.30;99.90;;;;;;5054120;28;20474;-84
2023/09/20 07:21:15;;;;;;;4.20;3.57;;;19.40;99.90;;;;;;5054200;28;20574;-83
2023/09/20 07:23:42;;;;;;;4.10;2.77;;;19.50;99.90;;;;;;5054219;28;20478;-84
2023/09/20 07:26:09;;;;;;;6.43;2.00;;;19.60;99.90;;;;;;5054202;28;20982;-83
2023/09/20 07:28:37;;;;;;;3.83;2.83;;;19.60;99.90;;;;;;5054878;28;20501;-83
2023/09/20 07:31:06;;;;;;;3.63;2.23;;;19.70;99.90;;;;;;5055190;28;20474;-83
2023/09/20 07:33:33;;;;;;;4.50;2.93;;;19.80;99.90;;;;;;5053704;28;20929;-84
2023/09/20 07:36:00;;;;;;;2.37;2.10;;;19.90;99.90;;;;;;5053829;28;20532;-84
2023/09/20 07:38:29;;;;;;;3.77;2.30;;;20.00;99.90;;;;;;5053519;28;20532;-83
2023/09/20 07:41:12;;;;;;;4.10;2.60;;;20.00;99.90;;;;;;5053932;28;20468;-80
2023/09/20 07:43:39;;;;;;;5.70;3.33;;;20.10;99.90;;;;;;5053419;28;20897;-81
2023/09/20 07:46:08;;;;;;;2.90;2.27;;;20.20;99.90;;;;;;5053647;28;20468;-81
2023/09/20 07:48:37;;;;;;;3.37;1.93;;;20.20;99.90;;;;;;5053304;28;20463;-81
2023/09/20 07:51:10;;;;;;;3.83;2.40;;;20.30;99.90;;;;;;5053885;28;20487;-81
2023/09/20 07:53:37;;;;;;;2.83;2.20;;;20.30;99.90;;;;;;5053746;28;20475;-83
2023/09/20 07:56:07;;;;;;;7.87;3.77;;;20.40;99.90;;;;;;5053678;28;20525;-83
2023/09/20 07:58:36;;;;;;;6.57;3.03;;;20.40;99.90;;;;;;5038699;28;20475;-83
2023/09/20 08:01:18;;;;;;;3.63;2.47;;;20.40;99.90;;;;;;5038883;28;20528;-81
2023/09/20 08:03:50;;;;;;;3.70;1.80;;;20.50;99.90;;;;;;5052561;28;20865;-81
2023/09/20 08:06:21;;;;;;;3.80;2.30;;;20.50;99.90;;;;;;5053885;28;20507;-83
2023/09/20 08:08:48;;;;;;;3.23;2.23;;;20.60;99.90;;;;;;5053646;28;20510;-83
2023/09/20 08:11:17;;;;;;;2.87;2.37;;;20.60;99.90;;;;;;5054212;28;20463;-83
2023/09/20 08:13:44;;;;;;;5.67;5.10;;;20.70;99.90;;;;;;5023355;28;20464;-83
2023/09/20 08:16:13;;;;;;;6.90;4.73;;;20.70;99.90;;;;;;5053937;28;20597;-83
2023/09/20 08:21:24;;;;;;;7.53;2.77;;;20.90;99.90;;;;;;5048311;28;20563;-80
2023/09/20 08:59:54;;;;;;;2.30;2.07;;;21.60;99.90;;;;;;5030074;28;20470;-81
2023/09/20 09:02:23;;;;;;;3.30;2.07;;;21.70;99.90;;;;;;5047177;28;20468;-81
2023/09/20 09:04:53;;;;;;;5.73;2.67;;;21.70;99.90;;;;;;5051912;28;20482;-82
2023/09/20 09:07:22;;;;;;;5.47;2.30;;;21.80;99.90;;;;;;5052864;28;20657;-83
2023/09/20 09:09:53;;;;;;;2.57;2.07;;;21.80;99.90;;;;;;5052659;28;20531;-83
2023/09/20 09:12:20;;;;;;;2.30;1.80;;;21.90;99.90;;;;;;5020559;28;20539;-81
2023/09/20 09:14:49;;;;;;;2.77;2.13;;;21.90;99.90;;;;;;5050359;28;20479;-81
2023/09/20 09:17:17;;;;;;;3.93;1.63;;;22.10;99.90;;;;;;5052119;28;20471;-81
2023/09/20 09:19:44;;;;;;;4.13;2.67;;;22.20;99.90;;;;;;5051071;28;20983;-81
2023/09/20 09:22:19;;;;;;;6.60;2.80;;;22.20;99.90;;;;;;5052029;28;20468;-83
2023/09/20 09:24:50;;;;;;;3.77;2.43;;;22.20;99.90;;;;;;5032414;28;20966;-80
2023/09/20 09:27:18;;;;;;;9.57;3.20;;;22.10;99.90;;;;;;5048035;28;20498;-81
2023/09/20 09:29:45;;;;;;;5.50;2.43;;;22.20;99.90;;;;;;5055536;28;20478;-80
2023/09/20 09:32:13;;;;;;;10.30;3.07;;;22.20;99.90;;;;;;5046721;28;20482;-81
2023/09/20 09:34:41;;;;;;;8.03;3.00;;;22.30;99.90;;;;;;5056024;28;20482;-81
2023/09/20 09:37:51;;;;;;;;;;;;;;;;;;;;;
2023/09/20 09:40:21;;;;;;;6.87;3.43;;;22.40;99.90;;;;;;4967261;28;20463;-80
2023/09/20 09:42:50;;;;;;;7.03;4.10;;;22.30;99.90;;;;;;5055751;28;20780;-80
2023/09/20 09:45:33;;;;;;;6.37;3.40;;;22.20;99.90;;;;;;5055130;28;20499;-80
2023/09/20 09:48:06;;;;;;;6.60;2.33;;;22.20;99.90;;;;;;5055666;28;20466;-82
2023/09/20 09:50:38;;;;;;;4.13;2.30;;;22.20;99.90;;;;;;5046076;28;20793;-83
2023/09/20 09:53:08;;;;;;;4.83;2.97;;;22.20;99.90;;;;;;5055954;28;20841;-83
2023/09/20 09:55:42;;;;;;;7.20;2.60;;;22.00;99.90;;;;;;5054850;28;20533;-83
2023/09/20 09:58:11;;;;;;;9.97;3.37;;;22.00;99.90;;;;;;5055413;28;20794;-83
2023/09/20 10:00:46;;;;;;;5.73;3.43;;;21.90;99.90;;;;;;5047650;28;20486;-80
2023/09/20 10:03:26;;;;;;;9.10;3.00;;;22.00;99.90;;;;;;5038089;28;20482;-82
2023/09/20 10:05:58;;;;;;;6.03;2.90;;;22.00;99.90;;;;;;5055207;28;20455;-80
2023/09/20 10:08:30;;;;;;;4.70;2.47;;;22.10;99.90;;;;;;5055294;28;20463;-82
2023/09/20 10:11:06;;;;;;;6.37;2.43;;;22.10;99.90;;;;;;5054821;28;20566;-83
2023/09/20 10:13:42;;;;;;;9.83;3.57;;;22.20;99.90;;;;;;5053489;28;20471;-83
2023/09/20 10:16:11;;;;;;;6.80;3.70;;;22.30;99.90;;;;;;5055078;28;20957;-80
2023/09/20 10:18:56;;;;;;;6.90;3.40;;;22.40;99.90;;;;;;5054818;28;20866;-82
2023/09/20 10:21:26;;;;;;;6.60;3.00;;;22.40;99.90;;;;;;5036492;28;20498;-79
2023/09/20 10:24:05;;;;;;;3.53;2.60;;;22.50;99.90;;;;;;5036322;28;20455;-80
2023/09/20 10:26:38;;;;;;;4.87;2.50;;;22.50;99.90;;;;;;5055198;28;20524;-81
2023/09/20 10:29:23;;;;;;;6.43;2.50;;;22.50;99.90;;;;;;5054618;28;20504;-80
2023/09/20 10:31:53;;;;;;;3.73;3.13;;;22.50;99.90;;;;;;5054759;28;20517;-81
2023/09/20 10:34:21;;;;;;;3.70;2.47;;;22.50;99.90;;;;;;5054749;28;21053;-80
2023/09/20 10:36:52;;;;;;;6.40;2.07;;;22.50;99.90;;;;;;5054659;28;20471;-85
2023/09/20 10:39:23;;;;;;;3.40;2.40;;;22.40;99.90;;;;;;5031629;28;20482;-81
2023/09/20 10:41:53;;;;;;;3.23;2.13;;;22.40;99.90;;;;;;5050126;28;20583;-81
2023/09/20 10:44:28;;;;;;;4.43;3.00;;;22.50;99.90;;;;;;5054222;28;20459;-84
2023/09/20 10:46:58;;;;;;;2.83;2.00;;;22.50;99.90;;;;;;5054263;28;20478;-84
2023/09/20 10:49:50;;;;;;;3.13;2.83;;;22.50;99.90;;;;;;5054632;28;20491;-84
2023/09/20 10:52:55;;;;;;;7.70;3.50;;;22.50;99.90;;;;;;5054082;28;20476;-84
2023/09/20 10:55:35;;;;;;;7.30;3.43;;;22.60;99.90;;;;;;5053497;28;20463;-84
2023/09/20 10:58:03;;;;;;;15.20;9.50;;;22.70;99.90;;;;;;5053833;28;20462;-81
2023/09/20 11:00:34;;;;;;;6.30;3.47;;;22.60;99.90;;;;;;5053783;28;20459;-80
2023/09/20 11:03:06;;;;;;;10.47;3.23;;;22.60;99.90;;;;;;5028184;28;20795;-81
2023/09/20 11:08:14;;;;;;;3.13;2.20;;;22.70;99.90;;;;;;5052194;28;20808;-82
2023/09/20 11:10:43;;;;;;;5.87;2.67;;;22.70;99.90;;;;;;5054690;28;20459;-83
2023/09/20 11:13:15;;;;;;;4.40;3.53;;;22.70;99.90;;;;;;5054401;28;20804;-80
2023/09/20 11:15:47;;;;;;;7.57;2.77;;;22.80;99.90;;;;;;5054420;28;20545;-79
2023/09/20 11:18:17;;;;;;;5.80;2.70;;;22.80;99.90;;;;;;5034092;28;20528;-81
2023/09/20 11:20:46;;;;;;;4.77;3.13;;;22.90;99.90;;;;;;5046850;28;20956;-80
2023/09/20 11:23:14;;;;;;;9.13;2.80;;;22.90;99.90;;;;;;5053346;28;20467;-83
2023/09/20 11:25:43;;;;;;;6.57;2.43;;;23.00;99.90;;;;;;5054247;28;20482;-81
2023/09/20 11:28:12;;;;;;;2.80;2.30;;;23.00;99.90;;;;;;5054341;28;20465;-83
2023/09/20 11:30:44;;;;;;;7.90;2.80;;;23.00;99.90;;;;;;5053888;28;20766;-84
2023/09/20 11:33:27;;;;;;;4.90;2.00;;;23.10;99.90;;;;;;5053406;28;20469;-81
2023/09/20 11:35:54;;;;;;;6.80;3.00;;;23.10;99.90;;;;;;5054104;28;20529;-81
2023/09/20 11:38:23;;;;;;;2.67;2.10;;;23.10;99.90;;;;;;5053594;28;20486;-83
2023/09/20 11:40:51;;;;;;;2.53;2.13;;;23.20;99.90;;;;;;5053809;28;20483;-83
2023/09/20 11:43:20;;;;;;;3.97;2.53;;;23.20;99.90;;;;;;5052661;28;20471;-83
2023/09/20 11:45:53;;;;;;;6.57;2.20;;;23.30;99.90;;;;;;5053239;28;20506;-83
2023/09/20 11:48:23;;;;;;;5.27;2.60;;;23.20;99.90;;;;;;5052834;28;20447;-83
2023/09/20 11:50:50;;;;;;;4.70;2.30;;;23.30;99.90;;;;;;5053736;28;20471;-83
2023/09/20 11:53:19;;;;;;;5.77;2.30;;;23.40;99.90;;;;;;5053141;28;20467;-83
2023/09/20 11:55:48;;;;;;;4.47;2.30;;;23.40;99.90;;;;;;5053619;28;20525;-84
2023/09/20 11:58:20;;;;;;;4.83;2.50;;;23.50;99.90;;;;;;5052907;28;20471;-83
2023/09/20 12:00:49;;;;;;;5.07;2.90;;;23.60;99.90;;;;;;5053621;28;20525;-84
2023/09/20 12:03:16;;;;;;;2.93;2.33;;;23.60;99.90;;;;;;5044044;28;20987;-82
2023/09/20 12:05:43;;;;;;;6.13;2.30;;;23.70;99.90;;;;;;5053439;28;20471;-81
2023/09/20 12:08:10;;;;;;;4.40;2.93;;;23.70;99.90;;;;;;5052647;28;20556;-80
2023/09/20 12:10:37;;;;;;;4.50;1.77;;;23.70;99.90;;;;;;5053517;28;20459;-81
2023/09/20 12:13:05;;;;;;;4.03;3.27;;;23.80;99.90;;;;;;5052646;28;20467;-81
2023/09/20 12:15:33;;;;;;;2.90;2.63;;;23.70;99.90;;;;;;5051798;28;20475;-81
2023/09/20 12:18:04;;;;;;;3.83;3.33;;;23.80;99.90;;;;;;5053485;28;20466;-83
2023/09/20 12:20:32;;;;;;;4.37;2.57;;;23.80;99.90;;;;;;5025172;28;20462;-84
2023/09/20 12:23:01;;;;;;;4.13;2.40;;;23.90;99.90;;;;;;5043695;28;21018;-81
2023/09/20 12:25:28;;;;;;;4.40;2.17;;;23.90;99.90;;;;;;5043832;28;20475;-81
2023/09/20 12:27:57;;;;;;;6.07;2.43;;;23.90;99.90;;;;;;5053902;28;20491;-80
2023/09/20 12:30:39;;;;;;;3.03;2.83;;;23.90;99.90;;;;;;5052517;28;20531;-80
2023/09/20 12:33:08;;;;;;;3.00;2.20;;;23.90;99.90;;;;;;5051403;28;20474;-81
2023/09/20 12:35:40;;;;;;;4.33;1.90;;;23.80;99.90;;;;;;5051612;28;20499;-81
2023/09/20 12:38:10;;;;;;;4.03;2.27;;;23.80;99.90;;;;;;5052048;28;20463;-81
2023/09/20 12:40:37;;;;;;;5.17;4.60;;;23.80;99.90;;;;;;5051561;28;20784;-84
2023/09/20 12:43:12;;;;;;;4.77;4.37;;;23.90;99.90;;;;;;5051661;28;20533;-81
2023/09/20 12:45:41;;;;;;;8.33;4.77;;;24.00;99.90;;;;;;5019588;28;20527;-81
2023/09/20 12:48:09;;;;;;;3.13;2.90;;;24.00;99.90;;;;;;5046648;28;20467;-81
2023/09/20 12:50:37;;;;;;;3.90;1.83;;;24.00;99.90;;;;;;5051478;28;20467;-80
2023/09/20 12:53:06;;;;;;;3.43;2.10;;;24.10;99.90;;;;;;5052051;28;20797;-81
2023/09/20 12:55:37;;;;;;;8.53;7.73;;;24.10;99.90;;;;;;5051246;28;20871;-82
2023/09/20 12:58:04;;;;;;;11.60;6.20;;;24.20;99.90;;;;;;5051683;28;20478;-81
2023/09/20 13:00:31;;;;;;;5.03;3.63;;;24.20;99.90;;;;;;5051593;28;20495;-81
2023/09/20 13:03:08;;;;;;;3.33;2.43;;;24.20;99.90;;;;;;5055271;28;20467;-82
2023/09/20 13:05:37;;;;;;;2.93;2.63;;;24.30;99.90;;;;;;5055155;28;20478;-80
2023/09/20 13:08:08;;;;;;;4.97;2.30;;;24.30;99.90;;;;;;5044489;28;20475;-81
2023/09/20 13:10:44;;;;;;;5.80;2.23;;;24.30;99.90;;;;;;5027347;28;20464;-81
2023/09/20 13:13:14;;;;;;;3.27;1.70;;;24.30;99.90;;;;;;5055127;28;20472;-80
2023/09/20 13:15:43;;;;;;;3.10;2.00;;;24.30;99.90;;;;;;5054303;28;20554;-81
2023/09/20 13:18:21;;;;;;;4.63;2.20;;;24.40;99.90;;;;;;5054981;28;20550;-82
2023/09/20 13:20:49;;;;;;;4.53;2.13;;;24.30;99.90;;;;;;5054336;28;20470;-84
2023/09/20 13:23:19;;;;;;;3.37;2.10;;;24.30;99.90;;;;;;5046394;28;20471;-84
2023/09/20 13:25:46;;;;;;;2.63;1.67;;;24.30;99.90;;;;;;5053863;28;20467;-84
2023/09/20 13:28:13;;;;;;;3.40;2.07;;;24.30;99.90;;;;;;5055159;28;20912;-85
2023/09/20 13:31:01;;;;;;;6.87;2.70;;;24.20;99.90;;;;;;5053826;28;20969;-82
2023/09/20 13:33:29;;;;;;;2.97;1.83;;;24.20;99.90;;;;;;5054951;28;20822;-83
2023/09/20 13:36:14;;;;;;;8.40;2.40;;;24.20;99.90;;;;;;4944125;28;3154991;-83
2023/09/20 13:38:42;;;;;;;3.23;2.00;;;24.20;99.90;;;;;;5067142;28;20231;-83
2023/09/20 13:41:11;;;;;;;3.17;2.30;;;24.20;99.90;;;;;;5056712;28;20455;-84
2023/09/20 13:43:44;;;;;;;2.80;1.97;;;24.30;99.90;;;;;;5021450;28;21015;-84